sensor_id;sensor_type;location;lat;lon;timestamp;P1;durP1;ratioP1;P2;durP2;ratioP2
10275;SDS011;5183;51.190;6.820;2024-01-16T19:37:11;15.33;;;10.77;;
10275;SDS011;5183;51.190;6.820;2024-01-16T19:39:39;16.17;;;11.60;;
10275;SDS011;5183;51.190;6.820;2024-01-16T19:42:08;16.80;;;11.67;;
10275;SDS011;5183;51.190;6.820;2024-01-16T19:44:35;15.97;;;11.03;;
10275;SDS011;5183;51.190;6.820;2024-01-16T19:47:02;15.93;;;11.57;;
10275;SDS011;5183;51.190;6.820;2024-01-16T19:49:29;18.60;;;10.93;;
10275;SDS011;5183;51.190;6.820;2024-01-16T19:51:56;13.50;;;10.63;;
10275;SDS011;5183;51.190;6.820;2024-01-16T19:54:24;18.17;;;10.47;;
10275;SDS011;5183;51.190;6.820;2024-01-16T19:56:52;15.60;;;10.03;;
10275;SDS011;5183;51.190;6.820;2024-01-16T19:59:19;16.63;;;10.97;;
10275;SDS011;5183;51.190;6.820;2024-01-16T20:01:46;13.80;;;10.80;;
10275;SDS011;5183;51.190;6.820;2024-01-16T20:04:14;17.40;;;11.20;;
10275;SDS011;5183;51.190;6.820;2024-01-16T20:06:42;18.03;;;10.83;;
10275;SDS011;5183;51.190;6.820;2024-01-16T20:09:10;15.87;;;11.17;;
10275;SDS011;5183;51.190;6.820;2024-01-16T20:11:42;13.77;;;10.17;;
10275;SDS011;5183;51.190;6.820;2024-01-16T20:14:11;15.20;;;11.97;;
10275;SDS011;5183;51.190;6.820;2024-01-16T20:16:38;18.70;;;11.00;;
10275;SDS011;5183;51.190;6.820;2024-01-16T20:19:05;16.60;;;11.30;;
10275;SDS011;5183;51.190;6.820;2024-01-16T20:21:32;14.50;;;11.03;;
10275;SDS011;5183;51.190;6.820;2024-01-16T20:24:00;18.23;;;10.93;;
10275;SDS011;5183;51.190;6.820;2024-01-16T20:26:27;15.43;;;11.20;;
10275;SDS011;5183;51.190;6.820;2024-01-16T20:28:55;14.60;;;11.73;;
10275;SDS011;5183;51.190;6.820;2024-01-16T20:31:22;18.27;;;11.53;;
10275;SDS011;5183;51.190;6.820;2024-01-16T20:33:49;18.50;;;12.23;;
10275;SDS011;5183;51.190;6.820;2024-01-16T20:36:16;13.15;;;11.50;;
10275;SDS011;5183;51.190;6.820;2024-01-16T20:41:11;19.50;;;11.70;;
10275;SDS011;5183;51.190;6.820;2024-01-16T20:48:33;17.57;;;11.83;;
10275;SDS011;5183;51.190;6.820;2024-01-16T20:51:00;18.40;;;12.73;;
10275;SDS011;5183;51.190;6.820;2024-01-16T20:53:30;18.33;;;13.43;;
10275;SDS011;5183;51.190;6.820;2024-01-16T20:55:56;21.27;;;13.43;;
10275;SDS011;5183;51.190;6.820;2024-01-16T20:58:24;18.43;;;12.83;;
10275;SDS011;5183;51.190;6.820;2024-01-16T21:00:51;22.13;;;13.27;;
10275;SDS011;5183;51.190;6.820;2024-01-16T21:03:20;15.43;;;11.03;;
10275;SDS011;5183;51.190;6.820;2024-01-16T21:05:48;16.77;;;11.70;;
10275;SDS011;5183;51.190;6.820;2024-01-16T21:08:19;15.87;;;12.20;;
10275;SDS011;5183;51.190;6.820;2024-01-16T21:10:46;17.87;;;12.83;;
10275;SDS011;5183;51.190;6.820;2024-01-16T21:13:13;17.00;;;11.73;;
10275;SDS011;5183;51.190;6.820;2024-01-16T21:15:40;18.90;;;11.73;;
10275;SDS011;5183;51.190;6.820;2024-01-16T21:18:08;14.70;;;11.77;;
10275;SDS011;5183;51.190;6.820;2024-01-16T21:20:36;13.67;;;11.37;;
10275;SDS011;5183;51.190;6.820;2024-01-16T21:23:04;15.20;;;11.23;;
10275;SDS011;5183;51.190;6.820;2024-01-16T21:25:31;16.10;;;11.47;;
10275;SDS011;5183;51.190;6.820;2024-01-16T21:27:58;17.03;;;12.13;;
10275;SDS011;5183;51.190;6.820;2024-01-16T21:30:25;17.90;;;12.13;;
10275;SDS011;5183;51.190;6.820;2024-01-16T21:32:52;15.90;;;11.87;;
10275;SDS011;5183;51.190;6.820;2024-01-16T21:35:19;15.60;;;11.43;;
10275;SDS011;5183;51.190;6.820;2024-01-16T21:37:48;16.57;;;11.87;;
10275;SDS011;5183;51.190;6.820;2024-01-16T21:40:15;15.97;;;11.10;;
10275;SDS011;5183;51.190;6.820;2024-01-16T21:42:42;13.70;;;11.47;;
10275;SDS011;5183;51.190;6.820;2024-01-16T21:45:09;15.20;;;10.90;;
10275;SDS011;5183;51.190;6.820;2024-01-16T21:47:35;15.60;;;10.70;;
10275;SDS011;5183;51.190;6.820;2024-01-16T21:50:03;17.00;;;11.47;;
10275;SDS011;5183;51.190;6.820;2024-01-16T21:52:30;13.83;;;10.40;;
10275;SDS011;5183;51.190;6.820;2024-01-16T21:54:58;14.33;;;10.90;;
10275;SDS011;5183;51.190;6.820;2024-01-16T21:57:25;13.90;;;10.97;;
10275;SDS011;5183;51.190;6.820;2024-01-16T21:59:55;14.10;;;10.90;;
10275;SDS011;5183;51.190;6.820;2024-01-16T22:02:22;16.60;;;11.67;;
10275;SDS011;5183;51.190;6.820;2024-01-16T22:04:49;15.00;;;11.10;;
10275;SDS011;5183;51.190;6.820;2024-01-16T22:07:16;16.30;;;11.27;;
10275;SDS011;5183;51.190;6.820;2024-01-16T22:09:44;13.83;;;10.70;;
10275;SDS011;5183;51.190;6.820;2024-01-16T22:12:12;17.20;;;11.83;;
10275;SDS011;5183;51.190;6.820;2024-01-16T22:14:39;17.63;;;11.43;;
10275;SDS011;5183;51.190;6.820;2024-01-16T22:17:06;15.27;;;11.70;;
10275;SDS011;5183;51.190;6.820;2024-01-16T22:19:33;17.37;;;11.67;;
10275;SDS011;5183;51.190;6.820;2024-01-16T22:22:00;15.93;;;11.80;;
10275;SDS011;5183;51.190;6.820;2024-01-16T22:24:27;17.00;;;11.97;;
10275;SDS011;5183;51.190;6.820;2024-01-16T22:26:54;13.73;;;12.00;;
10275;SDS011;5183;51.190;6.820;2024-01-16T22:29:22;17.27;;;11.90;;
10275;SDS011;5183;51.190;6.820;2024-01-16T22:31:49;18.17;;;12.10;;
10275;SDS011;5183;51.190;6.820;2024-01-16T22:34:16;15.57;;;12.10;;
10275;SDS011;5183;51.190;6.820;2024-01-16T22:36:44;15.90;;;12.37;;
10275;SDS011;5183;51.190;6.820;2024-01-16T22:39:10;16.90;;;12.70;;
10275;SDS011;5183;51.190;6.820;2024-01-16T22:41:43;17.20;;;12.57;;
10275;SDS011;5183;51.190;6.820;2024-01-16T22:44:11;16.50;;;12.57;;
10275;SDS011;5183;51.190;6.820;2024-01-16T22:46:39;15.97;;;12.47;;
10275;SDS011;5183;51.190;6.820;2024-01-16T22:49:06;15.30;;;11.53;;
10275;SDS011;5183;51.190;6.820;2024-01-16T22:51:33;16.07;;;12.47;;
10275;SDS011;5183;51.190;6.820;2024-01-16T22:54:01;16.23;;;12.23;;
10275;SDS011;5183;51.190;6.820;2024-01-16T22:56:28;17.03;;;12.50;;
10275;SDS011;5183;51.190;6.820;2024-01-16T22:58:55;17.23;;;12.23;;
10275;SDS011;5183;51.190;6.820;2024-01-16T23:01:24;17.70;;;13.23;;
10275;SDS011;5183;51.190;6.820;2024-01-16T23:03:52;16.37;;;12.80;;
10275;SDS011;5183;51.190;6.820;2024-01-16T23:06:21;15.33;;;12.17;;
10275;SDS011;5183;51.190;6.820;2024-01-16T23:08:51;20.20;;;13.07;;
10275;SDS011;5183;51.190;6.820;2024-01-16T23:11:18;15.77;;;11.73;;
10275;SDS011;5183;51.190;6.820;2024-01-16T23:13:45;17.57;;;12.57;;
10275;SDS011;5183;51.190;6.820;2024-01-16T23:16:12;16.93;;;12.50;;
10275;SDS011;5183;51.190;6.820;2024-01-16T23:18:39;20.43;;;12.80;;
10275;SDS011;5183;51.190;6.820;2024-01-16T23:21:11;19.13;;;12.67;;
10275;SDS011;5183;51.190;6.820;2024-01-16T23:23:39;17.57;;;12.47;;
10275;SDS011;5183;51.190;6.820;2024-01-16T23:26:07;18.10;;;13.07;;
10275;SDS011;5183;51.190;6.820;2024-01-16T23:28:35;19.80;;;13.63;;
10275;SDS011;5183;51.190;6.820;2024-01-16T23:31:02;17.07;;;13.17;;
10275;SDS011;5183;51.190;6.820;2024-01-16T23:33:30;17.53;;;12.93;;
10275;SDS011;5183;51.190;6.820;2024-01-16T23:35:57;19.17;;;13.50;;
10275;SDS011;5183;51.190;6.820;2024-01-16T23:38:25;21.63;;;14.00;;
10275;SDS011;5183;51.190;6.820;2024-01-16T23:40:53;19.47;;;14.37;;
10275;SDS011;5183;51.190;6.820;2024-01-16T23:43:21;18.27;;;13.30;;
10275;SDS011;5183;51.190;6.820;2024-01-16T23:45:48;18.23;;;14.13;;
10275;SDS011;5183;51.190;6.820;2024-01-16T23:48:15;20.53;;;14.20;;
10275;SDS011;5183;51.190;6.820;2024-01-16T23:50:42;17.80;;;14.27;;
10275;SDS011;5183;51.190;6.820;2024-01-16T23:53:09;22.23;;;14.23;;
10275;SDS011;5183;51.190;6.820;2024-01-16T23:55:37;21.77;;;14.30;;
10275;SDS011;5183;51.190;6.820;2024-01-16T23:58:04;19.47;;;14.27;;
